Time;durP1;ratioP1;P1;durP2;ratioP2;P2;SDS_P1;SDS_P2;PMS_P1;PMS_P2;Temp;Humidity;BMP_temperature;BMP_pressure;BME280_temperature;BME280_humidity;BME280_pressure;Samples;Min_cycle;Max_cycle;Signal;HPM_P1;HPM_P2
2023/01/21 00:01:44;;;;;;;9.25;4.90;;;;;;;;;;4991589;28;20030;-62
2023/01/21 00:04:09;;;;;;;9.00;4.65;;;;;;;;;;4993032;28;20073;-62
2023/01/21 00:06:35;;;;;;;7.25;3.95;;;;;;;;;;4987982;28;20030;-62
2023/01/21 00:09:01;;;;;;;7.35;3.95;;;;;;;;;;5004592;28;20062;-61
2023/01/21 00:11:27;;;;;;;6.22;3.75;;;;;;;;;;4987019;28;20030;-62
2023/01/21 00:13:52;;;;;;;9.00;3.28;;;;;;;;;;4986622;28;20384;-61
2023/01/21 00:16:17;;;;;;;9.20;4.35;;;;;;;;;;4985650;28;20129;-61
2023/01/21 00:18:43;;;;;;;6.65;4.22;;;;;;;;;;4985977;28;20379;-61
2023/01/21 00:21:09;;;;;;;7.25;3.90;;;;;;;;;;4988510;28;20030;-61
2023/01/21 00:23:34;;;;;;;8.02;4.40;;;;;;;;;;4987411;28;20022;-62
2023/01/21 00:26:02;;;;;;;10.55;4.85;;;;;;;;;;4985638;28;20109;-62
2023/01/21 00:28:29;;;;;;;10.70;4.65;;;;;;;;;;4993721;28;20041;-62
2023/01/21 00:31:02;;;;;;;8.35;4.90;;;;;;;;;;4994692;28;20026;-62
2023/01/21 00:33:28;;;;;;;9.73;5.05;;;;;;;;;;4994109;28;20515;-62
2023/01/21 00:36:04;;;;;;;9.25;4.95;;;;;;;;;;4990561;28;20062;-61
2023/01/21 00:38:30;;;;;;;10.98;5.40;;;;;;;;;;4991714;28;20418;-61
2023/01/21 00:41:06;;;;;;;8.70;4.45;;;;;;;;;;4992939;28;20109;-61
2023/01/21 00:43:32;;;;;;;10.23;5.28;;;;;;;;;;4992887;28;20030;-61
2023/01/21 00:45:57;;;;;;;8.73;4.65;;;;;;;;;;4994122;28;20035;-61
2023/01/21 00:48:23;;;;;;;8.15;4.57;;;;;;;;;;4990437;28;20019;-63
2023/01/21 00:50:50;;;;;;;7.40;4.85;;;;;;;;;;4992004;28;20054;-63
2023/01/21 00:53:16;;;;;;;7.80;4.60;;;;;;;;;;4994025;28;20029;-62
2023/01/21 00:55:42;;;;;;;7.28;4.50;;;;;;;;;;4993878;28;20034;-60
2023/01/21 00:58:07;;;;;;;9.98;4.68;;;;;;;;;;5000370;28;20017;-60
2023/01/21 01:00:33;;;;;;;7.88;4.60;;;;;;;;;;4990970;28;20483;-61
2023/01/21 01:02:58;;;;;;;10.48;5.30;;;;;;;;;;4991895;28;20045;-60
2023/01/21 01:05:23;;;;;;;7.80;4.70;;;;;;;;;;4987703;28;20480;-62
2023/01/21 01:07:49;;;;;;;7.55;4.65;;;;;;;;;;4993942;28;20475;-60
2023/01/21 01:10:16;;;;;;;11.63;4.70;;;;;;;;;;4995305;28;20092;-60
2023/01/21 01:12:41;;;;;;;9.10;4.93;;;;;;;;;;4988878;28;20026;-63
2023/01/21 01:15:08;;;;;;;9.82;4.78;;;;;;;;;;4988606;28;20036;-61
2023/01/21 01:17:33;;;;;;;10.10;4.95;;;;;;;;;;4989117;28;20046;-60
2023/01/21 01:19:59;;;;;;;10.00;4.85;;;;;;;;;;4992070;28;20038;-60
2023/01/21 01:22:24;;;;;;;14.10;5.85;;;;;;;;;;4990688;28;20018;-61
2023/01/21 01:24:50;;;;;;;11.50;5.22;;;;;;;;;;4991354;28;20589;-61
2023/01/21 01:27:15;;;;;;;10.68;5.90;;;;;;;;;;4989950;28;20026;-60
2023/01/21 01:29:40;;;;;;;9.02;5.10;;;;;;;;;;4992739;28;20178;-61
2023/01/21 01:32:06;;;;;;;10.35;5.10;;;;;;;;;;4989042;28;20112;-60
2023/01/21 01:34:31;;;;;;;15.18;6.90;;;;;;;;;;4989937;28;20113;-60
2023/01/21 01:36:56;;;;;;;13.70;6.32;;;;;;;;;;4990783;28;20146;-60
2023/01/21 01:39:22;;;;;;;9.48;5.35;;;;;;;;;;4996051;28;20034;-61
2023/01/21 01:41:47;;;;;;;10.32;5.07;;;;;;;;;;4989821;28;20022;-61
2023/01/21 01:44:50;;;;;;;11.00;5.82;;;;;;;;;;4988471;28;20113;-62
2023/01/21 01:47:16;;;;;;;12.27;5.32;;;;;;;;;;4998400;28;20030;-61
2023/01/21 01:49:42;;;;;;;10.90;5.03;;;;;;;;;;4989887;28;20034;-61
2023/01/21 01:52:10;;;;;;;9.80;5.13;;;;;;;;;;4994724;28;20488;-62
2023/01/21 01:54:41;;;;;;;9.60;5.68;;;;;;;;;;4994806;28;20035;-61
2023/01/21 01:57:10;;;;;;;10.88;5.63;;;;;;;;;;4992460;28;20032;-62
2023/01/21 01:59:36;;;;;;;;;;;;;;;;;;4997694;28;20387;-61
2023/01/21 02:02:05;;;;;;;14.02;6.50;;;;;;;;;;4994906;28;19917;-63
2023/01/21 02:04:36;;;;;;;10.65;6.78;;;;;;;;;;4994679;28;20060;-62
2023/01/21 02:07:02;;;;;;;11.98;6.55;;;;;;;;;;4994259;28;20460;-62
2023/01/21 02:09:28;;;;;;;10.32;5.97;;;;;;;;;;4990668;28;20080;-62
2023/01/21 02:12:05;;;;;;;14.10;6.75;;;;;;;;;;4988003;28;20030;-61
2023/01/21 02:14:32;;;;;;;11.35;5.82;;;;;;;;;;4989453;28;20084;-62
2023/01/21 02:17:16;;;;;;;11.27;6.13;;;;;;;;;;4989324;28;20053;-62
2023/01/21 02:19:44;;;;;;;15.60;6.15;;;;;;;;;;4990439;28;20847;-62
2023/01/21 02:22:28;;;;;;;11.88;6.60;;;;;;;;;;4988822;28;20039;-62
2023/01/21 02:25:21;;;;;;;10.50;4.85;;;;;;;;;;4984095;28;20080;-62
2023/01/21 02:27:52;;;;;;;12.63;6.22;;;;;;;;;;4987262;28;20549;-62
2023/01/21 02:30:53;;;;;;;11.68;6.10;;;;;;;;;;4993834;28;20460;-60
2023/01/21 02:33:29;;;;;;;11.18;5.45;;;;;;;;;;4907317;29;20035;-61
2023/01/21 02:36:00;;;;;;;11.25;5.78;;;;;;;;;;4982199;28;20125;-61
2023/01/21 02:38:33;;;;;;;11.80;5.78;;;;;;;;;;4986567;28;20532;-61
2023/01/21 02:41:08;;;;;;;12.45;5.93;;;;;;;;;;4988914;28;20030;-61
2023/01/21 02:44:06;;;;;;;13.20;5.88;;;;;;;;;;4993513;28;20025;-61
2023/01/21 02:46:52;;;;;;;11.68;6.15;;;;;;;;;;4989227;28;20037;-62
2023/01/21 02:49:23;;;;;;;17.40;5.60;;;;;;;;;;4989718;28;20419;-62
2023/01/21 02:51:49;;;;;;;11.63;5.85;;;;;;;;;;5001472;28;20026;-61
2023/01/21 02:54:35;;;;;;;11.43;5.72;;;;;;;;;;4995002;28;20241;-61
2023/01/21 02:57:01;;;;;;;51.63;19.73;;;;;;;;;;4988685;28;20066;-61
2023/01/21 02:59:27;;;;;;;81.03;30.55;;;;;;;;;;4992203;28;20062;-61
2023/01/21 03:02:26;;;;;;;46.55;19.55;;;;;;;;;;5007423;28;20035;-60
2023/01/21 03:05:21;;;;;;;32.50;13.55;;;;;;;;;;4993683;28;20045;-61
2023/01/21 03:08:15;;;;;;;33.67;14.35;;;;;;;;;;4980937;28;20030;-59
2023/01/21 03:10:47;;;;;;;20.95;9.48;;;;;;;;;;4988444;28;20026;-61
2023/01/21 03:16:55;;;;;;;14.07;6.75;;;;;;;;;;4991327;28;20113;-61
2023/01/21 03:18:53;;;;;;;15.57;4.80;;;;;;;;;;4986435;28;20419;-60
2023/01/21 03:21:26;;;;;;;10.80;6.05;;;;;;;;;;4993113;28;20034;-60
2023/01/21 03:23:53;;;;;;;9.05;4.90;;;;;;;;;;4992758;28;20517;-61
2023/01/21 03:26:24;;;;;;;10.13;5.18;;;;;;;;;;4991687;28;20038;-61
2023/01/21 03:28:53;;;;;;;10.25;4.70;;;;;;;;;;5008338;28;20021;-62
2023/01/21 03:31:30;;;;;;;9.45;4.72;;;;;;;;;;4991527;28;20112;-62
2023/01/21 03:33:59;;;;;;;9.57;4.35;;;;;;;;;;4996706;28;20022;-61
2023/01/21 03:36:43;;;;;;;9.13;5.03;;;;;;;;;;4994538;28;20030;-61
2023/01/21 03:39:27;;;;;;;11.73;5.50;;;;;;;;;;4988412;28;20102;-61
2023/01/21 03:41:53;;;;;;;9.32;4.68;;;;;;;;;;4993471;28;20030;-61
2023/01/21 03:44:18;;;;;;;10.30;5.50;;;;;;;;;;4992656;28;20076;-60
2023/01/21 03:46:50;;;;;;;9.50;5.13;;;;;;;;;;4990523;28;20027;-61
2023/01/21 03:49:26;;;;;;;9.25;5.43;;;;;;;;;;4992046;28;20029;-61
2023/01/21 03:51:56;;;;;;;12.27;5.82;;;;;;;;;;4989830;28;20041;-61
2023/01/21 03:54:22;;;;;;;;;;;;;;;;;;4991733;28;20034;-61
2023/01/21 03:56:47;;;;;;;9.18;4.53;;;;;;;;;;4996729;28;20330;-60
2023/01/21 03:59:13;;;;;;;11.32;5.22;;;;;;;;;;4995851;28;20033;-61
2023/01/21 04:01:39;;;;;;;12.50;5.90;;;;;;;;;;4991950;28;20027;-61
2023/01/21 04:04:05;;;;;;;9.48;4.70;;;;;;;;;;4996457;28;20049;-61
2023/01/21 04:06:32;;;;;;;12.05;5.00;;;;;;;;;;4996344;28;20519;-62
2023/01/21 04:08:57;;;;;;;14.10;5.35;;;;;;;;;;4994898;28;20045;-61
2023/01/21 04:11:23;;;;;;;12.68;5.35;;;;;;;;;;4995539;28;20038;-61
2023/01/21 04:13:48;;;;;;;10.13;5.35;;;;;;;;;;4996162;28;20049;-61
2023/01/21 04:16:14;;;;;;;12.60;5.72;;;;;;;;;;4995421;28;20117;-61
2023/01/21 04:18:39;;;;;;;13.95;5.65;;;;;;;;;;4997861;28;20024;-61
2023/01/21 04:21:04;;;;;;;8.88;4.93;;;;;;;;;;4995384;28;20030;-61
2023/01/21 04:23:30;;;;;;;13.02;6.97;;;;;;;;;;4995035;28;20033;-61
2023/01/21 04:25:55;;;;;;;10.25;5.75;;;;;;;;;;4993516;28;20034;-59
2023/01/21 04:28:20;;;;;;;11.02;5.65;;;;;;;;;;4997642;28;20036;-61
2023/01/21 04:30:46;;;;;;;11.15;5.22;;;;;;;;;;4998194;28;20026;-61
2023/01/21 04:33:12;;;;;;;10.25;5.32;;;;;;;;;;4995380;28;20022;-61
2023/01/21 04:35:37;;;;;;;12.30;4.63;;;;;;;;;;4998493;28;20403;-61
2023/01/21 04:38:04;;;;;;;10.60;4.80;;;;;;;;;;4994340;28;20038;-61
2023/01/21 04:40:30;;;;;;;9.15;4.90;;;;;;;;;;5009634;28;20458;-61
2023/01/21 04:42:55;;;;;;;7.20;4.35;;;;;;;;;;4999006;28;20093;-60
2023/01/21 04:45:20;;;;;;;12.23;5.32;;;;;;;;;;4997190;28;20030;-61
2023/01/21 04:47:46;;;;;;;10.32;4.15;;;;;;;;;;4996398;28;20659;-60
2023/01/21 04:50:12;;;;;;;7.25;3.90;;;;;;;;;;5001394;28;20034;-60
2023/01/21 04:52:38;;;;;;;8.82;3.97;;;;;;;;;;4996935;28;20105;-60
2023/01/21 04:55:04;;;;;;;8.40;3.85;;;;;;;;;;4997018;28;20542;-60
2023/01/21 04:57:29;;;;;;;8.60;4.28;;;;;;;;;;4999570;28;20085;-60
2023/01/21 04:59:55;;;;;;;9.18;4.13;;;;;;;;;;4994780;28;20447;-60
2023/01/21 05:02:20;;;;;;;12.35;5.07;;;;;;;;;;4994810;28;20030;-60
2023/01/21 05:04:45;;;;;;;8.50;4.43;;;;;;;;;;4995059;28;20030;-60
2023/01/21 05:07:11;;;;;;;11.43;5.07;;;;;;;;;;4994976;28;20080;-60
2023/01/21 05:09:37;;;;;;;10.20;5.13;;;;;;;;;;4994057;28;20033;-60
2023/01/21 05:12:03;;;;;;;6.07;3.83;;;;;;;;;;4994664;28;20463;-59
2023/01/21 05:14:28;;;;;;;10.10;4.97;;;;;;;;;;4992350;28;20053;-59
2023/01/21 05:16:53;;;;;;;8.77;4.47;;;;;;;;;;4987549;28;20034;-61
2023/01/21 05:19:19;;;;;;;6.72;3.90;;;;;;;;;;4987757;28;20030;-60
2023/01/21 05:21:44;;;;;;;6.63;3.97;;;;;;;;;;4985630;28;20034;-60
2023/01/21 05:24:10;;;;;;;7.95;3.45;;;;;;;;;;4990255;28;20022;-59
2023/01/21 05:26:35;;;;;;;7.47;3.80;;;;;;;;;;4993379;28;20033;-60
2023/01/21 05:29:00;;;;;;;7.45;4.40;;;;;;;;;;4990722;28;20030;-61
2023/01/21 05:31:26;;;;;;;8.40;4.97;;;;;;;;;;4998301;28;20053;-60
2023/01/21 05:33:51;;;;;;;6.68;4.20;;;;;;;;;;4993454;28;20080;-61
2023/01/21 05:36:16;;;;;;;4.93;3.50;;;;;;;;;;4992353;28;20170;-62
2023/01/21 05:38:42;;;;;;;5.20;2.70;;;;;;;;;;4992714;28;20069;-60
2023/01/21 05:41:07;;;;;;;6.22;3.15;;;;;;;;;;4995506;28;20036;-59
2023/01/21 05:43:32;;;;;;;6.63;3.33;;;;;;;;;;4990998;28;20077;-60
2023/01/21 05:45:58;;;;;;;7.32;3.97;;;;;;;;;;4991247;28;20033;-60
2023/01/21 05:48:24;;;;;;;9.00;3.88;;;;;;;;;;4991078;28;20032;-61
2023/01/21 05:50:49;;;;;;;8.10;3.60;;;;;;;;;;4995147;28;20034;-59
2023/01/21 05:53:16;;;;;;;8.07;3.63;;;;;;;;;;4996845;28;20034;-59
2023/01/21 05:55:41;;;;;;;7.25;3.65;;;;;;;;;;4998494;28;20092;-60
2023/01/21 05:58:07;;;;;;;5.65;3.28;;;;;;;;;;4990494;28;20026;-60
2023/01/21 06:00:32;;;;;;;12.93;4.72;;;;;;;;;;4990779;28;20102;-60
2023/01/21 06:03:01;;;;;;;13.63;7.65;;;;;;;;;;4996652;28;20033;-60
2023/01/21 06:05:27;;;;;;;17.63;7.63;;;;;;;;;;5000338;28;20049;-61
2023/01/21 06:07:53;;;;;;;16.42;8.35;;;;;;;;;;4988994;28;20030;-58
2023/01/21 06:10:19;;;;;;;26.27;10.68;;;;;;;;;;4989606;28;20033;-58
2023/01/21 06:12:45;;;;;;;19.10;8.75;;;;;;;;;;5006142;28;20435;-58
2023/01/21 06:15:12;;;;;;;16.05;7.57;;;;;;;;;;4991576;28;20022;-59
2023/01/21 06:17:39;;;;;;;15.02;7.32;;;;;;;;;;4989865;28;20021;-58
2023/01/21 06:20:06;;;;;;;15.18;7.97;;;;;;;;;;4991402;28;20041;-59
2023/01/21 06:22:31;;;;;;;25.65;11.98;;;;;;;;;;4990062;28;20385;-59
2023/01/21 06:24:57;;;;;;;20.70;11.52;;;;;;;;;;4991429;28;20038;-58
2023/01/21 06:27:22;;;;;;;30.08;14.90;;;;;;;;;;4992309;28;20034;-59
2023/01/21 06:29:47;;;;;;;22.20;11.48;;;;;;;;;;4991572;28;20030;-59
2023/01/21 06:32:13;;;;;;;21.13;11.50;;;;;;;;;;4993465;28;20033;-58
2023/01/21 06:34:38;;;;;;;18.40;10.88;;;;;;;;;;4987806;28;20026;-58
2023/01/21 06:37:03;;;;;;;24.17;9.90;;;;;;;;;;4993159;28;20022;-59
2023/01/21 06:39:29;;;;;;;22.63;8.80;;;;;;;;;;4994012;28;20038;-59
2023/01/21 06:41:54;;;;;;;27.13;11.57;;;;;;;;;;4994122;28;20027;-59
2023/01/21 06:44:19;;;;;;;28.27;11.77;;;;;;;;;;4996420;28;20061;-58
2023/01/21 06:46:45;;;;;;;25.85;10.55;;;;;;;;;;4994468;28;20073;-58
2023/01/21 06:49:10;;;;;;;31.67;12.60;;;;;;;;;;4996278;28;20033;-58
2023/01/21 06:51:35;;;;;;;21.85;10.95;;;;;;;;;;4992454;28;20096;-58
2023/01/21 06:54:01;;;;;;;21.35;10.25;;;;;;;;;;4993507;28;20019;-57
2023/01/21 06:56:26;;;;;;;28.65;12.98;;;;;;;;;;4992300;28;20428;-59
2023/01/21 06:58:51;;;;;;;29.25;12.68;;;;;;;;;;4991159;28;20121;-59
2023/01/21 07:01:17;;;;;;;25.02;11.55;;;;;;;;;;4988782;28;20112;-59
2023/01/21 07:03:43;;;;;;;28.92;12.57;;;;;;;;;;4996296;28;20110;-58
2023/01/21 07:06:08;;;;;;;31.50;14.50;;;;;;;;;;4988971;28;20109;-58
2023/01/21 07:08:34;;;;;;;31.63;14.18;;;;;;;;;;4990021;28;20033;-58
2023/01/21 07:10:59;;;;;;;38.42;18.65;;;;;;;;;;5004564;28;20077;-59
2023/01/21 07:13:25;;;;;;;37.40;16.48;;;;;;;;;;4991292;28;20359;-60
2023/01/21 07:15:50;;;;;;;34.83;16.80;;;;;;;;;;4991307;28;20057;-58
2023/01/21 07:18:15;;;;;;;30.20;13.90;;;;;;;;;;4987633;28;20030;-59
2023/01/21 07:20:41;;;;;;;28.00;13.23;;;;;;;;;;4992196;28;20045;-59
2023/01/21 07:23:06;;;;;;;27.88;13.38;;;;;;;;;;4990048;28;20035;-58
2023/01/21 07:25:34;;;;;;;22.67;13.05;;;;;;;;;;4991591;28;20742;-58
2023/01/21 07:27:59;;;;;;;30.02;14.18;;;;;;;;;;4988468;28;20030;-59
2023/01/21 07:30:25;;;;;;;26.95;13.13;;;;;;;;;;4987854;28;20534;-59
2023/01/21 07:32:50;;;;;;;25.13;12.23;;;;;;;;;;4987118;28;20030;-57
2023/01/21 07:35:16;;;;;;;27.52;13.55;;;;;;;;;;4991086;28;20139;-58
2023/01/21 07:37:41;;;;;;;29.05;13.93;;;;;;;;;;4990483;28;20583;-59
2023/01/21 07:40:07;;;;;;;28.02;14.52;;;;;;;;;;4994107;28;20029;-59
2023/01/21 07:42:33;;;;;;;28.63;13.60;;;;;;;;;;4988873;28;20018;-57
2023/01/21 07:45:01;;;;;;;35.40;17.80;;;;;;;;;;4989909;28;20400;-57
2023/01/21 07:47:26;;;;;;;73.15;32.58;;;;;;;;;;4987641;28;20365;-59
2023/01/21 07:49:52;;;;;;;61.47;28.17;;;;;;;;;;4993693;28;20085;-59
2023/01/21 07:52:17;;;;;;;39.88;20.40;;;;;;;;;;4993071;28;20121;-59
2023/01/21 07:54:42;;;;;;;40.83;18.27;;;;;;;;;;4995203;28;20042;-59
2023/01/21 07:57:08;;;;;;;38.35;18.45;;;;;;;;;;4993587;28;20080;-58
2023/01/21 07:59:33;;;;;;;38.50;19.10;;;;;;;;;;4991057;28;20407;-59
2023/01/21 08:01:58;;;;;;;41.25;17.15;;;;;;;;;;4989911;28;20384;-58
2023/01/21 08:04:24;;;;;;;38.90;15.95;;;;;;;;;;4990228;28;20058;-59
2023/01/21 08:06:51;;;;;;;46.30;16.20;;;;;;;;;;4988995;28;20030;-59
2023/01/21 08:09:17;;;;;;;42.67;17.10;;;;;;;;;;4990086;28;20515;-58
2023/01/21 08:11:42;;;;;;;36.25;15.18;;;;;;;;;;4988686;28;20058;-58
2023/01/21 08:14:08;;;;;;;40.42;15.43;;;;;;;;;;4986025;28;20129;-59
2023/01/21 08:16:33;;;;;;;43.80;17.42;;;;;;;;;;4989163;28;20040;-58
2023/01/21 08:18:59;;;;;;;43.88;16.88;;;;;;;;;;4990752;28;20030;-59
2023/01/21 08:21:24;;;;;;;44.17;15.43;;;;;;;;;;4989127;28;20030;-59
2023/01/21 08:23:49;;;;;;;38.25;16.77;;;;;;;;;;4988161;28;20078;-59
2023/01/21 08:26:15;;;;;;;39.60;17.48;;;;;;;;;;4989121;28;20102;-59
2023/01/21 08:28:40;;;;;;;44.83;17.27;;;;;;;;;;4987707;28;20030;-59
2023/01/21 08:31:09;;;;;;;41.13;17.33;;;;;;;;;;4990850;28;20517;-58
2023/01/21 08:33:35;;;;;;;39.90;15.80;;;;;;;;;;4988081;28;20040;-59
2023/01/21 08:36:05;;;;;;;46.95;18.80;;;;;;;;;;4992495;28;20034;-59
2023/01/21 08:38:31;;;;;;;44.22;18.98;;;;;;;;;;4991616;28;20054;-59
2023/01/21 08:40:57;;;;;;;41.92;18.88;;;;;;;;;;4988917;28;20096;-60
2023/01/21 08:43:23;;;;;;;41.60;17.70;;;;;;;;;;4989106;28;20034;-59
2023/01/21 08:45:48;;;;;;;43.67;18.05;;;;;;;;;;5003644;28;20034;-60
2023/01/21 08:48:13;;;;;;;42.83;15.50;;;;;;;;;;4995315;28;20018;-60
2023/01/21 08:50:39;;;;;;;44.33;17.65;;;;;;;;;;4996366;28;20558;-60
2023/01/21 08:53:04;;;;;;;41.72;16.08;;;;;;;;;;4994481;28;20038;-57
2023/01/21 08:55:29;;;;;;;50.25;17.52;;;;;;;;;;4991602;28;20081;-57
2023/01/21 08:57:57;;;;;;;52.15;18.00;;;;;;;;;;4995774;28;20033;-59
2023/01/21 09:00:23;;;;;;;47.45;18.25;;;;;;;;;;4992549;28;20038;-59
2023/01/21 09:02:49;;;;;;;47.13;18.30;;;;;;;;;;4994494;28;20468;-58
2023/01/21 09:05:14;;;;;;;41.72;17.27;;;;;;;;;;4991634;28;20034;-58
2023/01/21 09:07:40;;;;;;;64.72;20.25;;;;;;;;;;4991933;28;20018;-60
2023/01/21 09:10:06;;;;;;;55.28;19.35;;;;;;;;;;4992762;28;20380;-58
2023/01/21 09:12:32;;;;;;;45.17;17.98;;;;;;;;;;4992443;28;20034;-58
2023/01/21 09:14:57;;;;;;;42.85;17.30;;;;;;;;;;4992325;28;20030;-59
2023/01/21 09:17:23;;;;;;;44.42;16.67;;;;;;;;;;4989986;28;20460;-58
2023/01/21 09:19:48;;;;;;;47.00;17.38;;;;;;;;;;4993303;28;20092;-59
2023/01/21 09:22:15;;;;;;;40.08;15.65;;;;;;;;;;4993480;28;20030;-59
2023/01/21 09:24:40;;;;;;;43.45;17.73;;;;;;;;;;4997474;28;20018;-58
2023/01/21 09:27:06;;;;;;;47.58;18.42;;;;;;;;;;4997388;28;20041;-60
2023/01/21 09:29:32;;;;;;;46.15;19.75;;;;;;;;;;4999524;28;20030;-58
2023/01/21 09:31:57;;;;;;;53.05;19.02;;;;;;;;;;4993078;28;20033;-59
2023/01/21 09:34:23;;;;;;;51.40;18.10;;;;;;;;;;4992232;28;20602;-59
2023/01/21 09:36:48;;;;;;;55.30;20.40;;;;;;;;;;4995090;28;20068;-60
2023/01/21 09:39:14;;;;;;;44.30;18.50;;;;;;;;;;4997414;28;20036;-59
2023/01/21 09:41:53;;;;;;;55.10;19.83;;;;;;;;;;4991515;28;20033;-59
2023/01/21 09:44:34;;;;;;;52.22;20.17;;;;;;;;;;4987955;28;20022;-60
2023/01/21 09:47:25;;;;;;;59.00;20.75;;;;;;;;;;4993839;28;20116;-59
2023/01/21 09:49:54;;;;;;;58.70;21.60;;;;;;;;;;4993875;28;20034;-59
2023/01/21 09:52:35;;;;;;;86.03;26.80;;;;;;;;;;5010109;28;20041;-58
2023/01/21 09:55:02;;;;;;;69.95;23.48;;;;;;;;;;4991520;28;20336;-59
2023/01/21 09:58:06;;;;;;;54.17;21.63;;;;;;;;;;4989915;28;20420;-59
2023/01/21 10:00:42;;;;;;;52.70;19.77;;;;;;;;;;4987868;28;20254;-58
2023/01/21 10:03:17;;;;;;;52.58;19.38;;;;;;;;;;4991588;28;20030;-58
2023/01/21 10:05:51;;;;;;;70.18;26.08;;;;;;;;;;4991782;28;20038;-59
2023/01/21 10:08:54;;;;;;;64.18;23.85;;;;;;;;;;4990669;28;20030;-58
2023/01/21 10:11:25;;;;;;;52.90;21.55;;;;;;;;;;4988545;28;20105;-59
2023/01/21 10:14:03;;;;;;;53.05;21.40;;;;;;;;;;4987145;28;20030;-59
2023/01/21 10:16:50;;;;;;;56.72;20.52;;;;;;;;;;4992821;28;20034;-58
2023/01/21 10:19:21;;;;;;;66.60;22.15;;;;;;;;;;4987853;28;20052;-58
2023/01/21 10:21:59;;;;;;;55.30;20.45;;;;;;;;;;4991561;28;20471;-58
2023/01/21 10:24:37;;;;;;;59.25;24.33;;;;;;;;;;4994361;28;20034;-59
2023/01/21 10:27:04;;;;;;;54.72;22.15;;;;;;;;;;4988037;28;20030;-60
2023/01/21 10:29:30;;;;;;;64.03;22.05;;;;;;;;;;4992152;28;20045;-59
2023/01/21 10:32:01;;;;;;;74.18;23.90;;;;;;;;;;4988428;28;20035;-62
2023/01/21 10:34:31;;;;;;;61.28;22.33;;;;;;;;;;4989158;28;20023;-65
2023/01/21 10:37:23;;;;;;;68.82;23.75;;;;;;;;;;4989242;28;20054;-63
2023/01/21 10:40:00;;;;;;;67.15;22.60;;;;;;;;;;4988732;28;20058;-63
2023/01/21 10:42:35;;;;;;;66.47;23.17;;;;;;;;;;4988881;28;20061;-62
2023/01/21 10:45:42;;;;;;;67.45;26.38;;;;;;;;;;4995342;28;20033;-64
2023/01/21 10:48:26;;;;;;;64.10;23.88;;;;;;;;;;4983790;28;20515;-64
2023/01/21 10:51:04;;;;;;;66.63;26.88;;;;;;;;;;4989419;28;20056;-64
2023/01/21 10:53:32;;;;;;;67.32;24.83;;;;;;;;;;4989277;28;20026;-64
2023/01/21 10:56:21;;;;;;;72.68;26.60;;;;;;;;;;4992075;28;20052;-64
2023/01/21 10:58:53;;;;;;;75.97;27.15;;;;;;;;;;4992294;28;20018;-64
2023/01/21 11:01:33;;;;;;;75.43;25.65;;;;;;;;;;4987995;28;20042;-63
2023/01/21 11:04:04;;;;;;;68.75;24.55;;;;;;;;;;4985069;28;20049;-63
2023/01/21 11:06:31;;;;;;;74.97;26.38;;;;;;;;;;4988718;28;20065;-63
2023/01/21 11:09:03;;;;;;;73.30;24.70;;;;;;;;;;4986312;28;20029;-65
2023/01/21 11:11:32;;;;;;;67.38;25.05;;;;;;;;;;4992916;28;20526;-65
2023/01/21 11:13:58;;;;;;;76.57;26.35;;;;;;;;;;4990909;28;20198;-65
2023/01/21 11:16:35;;;;;;;70.43;25.27;;;;;;;;;;4991377;28;20399;-65
2023/01/21 11:19:04;;;;;;;72.68;26.50;;;;;;;;;;4991342;28;20392;-65
2023/01/21 11:21:29;;;;;;;84.78;27.67;;;;;;;;;;4988513;28;20076;-65
2023/01/21 11:24:03;;;;;;;88.22;27.10;;;;;;;;;;4991438;28;20030;-66
2023/01/21 11:26:33;;;;;;;73.28;26.92;;;;;;;;;;4990580;28;20048;-66
2023/01/21 11:29:14;;;;;;;85.18;28.98;;;;;;;;;;4991866;28;20172;-66
2023/01/21 11:31:42;;;;;;;88.82;29.45;;;;;;;;;;4988516;28;20384;-66
2023/01/21 11:34:17;;;;;;;88.13;28.92;;;;;;;;;;4989144;28;20098;-66
2023/01/21 11:37:04;;;;;;;79.60;27.50;;;;;;;;;;4988773;28;20046;-65
2023/01/21 11:39:32;;;;;;;90.68;31.25;;;;;;;;;;4990696;28;20079;-66
2023/01/21 11:42:05;;;;;;;80.40;28.88;;;;;;;;;;4994584;28;20373;-65
2023/01/21 11:44:32;;;;;;;86.75;28.20;;;;;;;;;;4992187;28;20034;-64
2023/01/21 11:46:58;;;;;;;78.13;28.27;;;;;;;;;;4991112;28;20118;-66
2023/01/21 11:49:27;;;;;;;91.63;31.55;;;;;;;;;;4992285;28;20041;-65
2023/01/21 11:52:12;;;;;;;82.60;29.87;;;;;;;;;;4993356;28;20041;-66
2023/01/21 11:54:40;;;;;;;90.88;29.75;;;;;;;;;;4994764;28;20293;-66
2023/01/21 11:57:21;;;;;;;95.22;31.90;;;;;;;;;;4992876;28;20058;-64
2023/01/21 11:59:47;;;;;;;82.78;28.42;;;;;;;;;;4987926;28;20029;-65
2023/01/21 12:02:29;;;;;;;86.22;29.48;;;;;;;;;;4987242;28;20408;-65
2023/01/21 12:04:57;;;;;;;94.72;29.88;;;;;;;;;;4981841;28;20089;-66
2023/01/21 12:07:36;;;;;;;89.85;32.75;;;;;;;;;;4987394;28;20034;-64
2023/01/21 12:10:17;;;;;;;87.03;30.65;;;;;;;;;;4987950;28;20038;-65
2023/01/21 12:12:42;;;;;;;89.63;32.33;;;;;;;;;;4989714;28;20085;-65
2023/01/21 12:15:29;;;;;;;94.07;31.15;;;;;;;;;;5000229;28;20034;-65
2023/01/21 12:18:00;;;;;;;98.82;32.65;;;;;;;;;;4987004;28;20037;-65
2023/01/21 12:20:33;;;;;;;95.22;29.75;;;;;;;;;;4993758;28;20116;-65
2023/01/21 12:23:11;;;;;;;109.72;34.53;;;;;;;;;;4988463;28;20081;-66
2023/01/21 12:25:51;;;;;;;93.57;31.73;;;;;;;;;;4994187;28;20034;-65
2023/01/21 12:28:32;;;;;;;93.78;31.65;;;;;;;;;;4989778;28;20038;-65
2023/01/21 12:31:13;;;;;;;103.10;33.97;;;;;;;;;;4993848;28;20113;-66
2023/01/21 12:33:54;;;;;;;107.55;33.92;;;;;;;;;;4991483;28;20484;-66
2023/01/21 12:36:28;;;;;;;100.82;34.35;;;;;;;;;;4997461;28;20088;-66
2023/01/21 12:39:15;;;;;;;93.10;31.02;;;;;;;;;;4992277;28;20034;-65
2023/01/21 12:41:43;;;;;;;98.32;33.10;;;;;;;;;;4990823;28;20105;-66
2023/01/21 12:44:22;;;;;;;93.93;31.13;;;;;;;;;;4993593;28;20018;-66
2023/01/21 12:46:49;;;;;;;95.97;32.90;;;;;;;;;;4994696;28;20145;-66
2023/01/21 12:49:25;;;;;;;118.07;32.78;;;;;;;;;;4990994;28;20034;-64
2023/01/21 12:52:01;;;;;;;99.60;32.72;;;;;;;;;;5000185;28;20034;-66
2023/01/21 12:54:34;;;;;;;109.20;33.58;;;;;;;;;;4993065;28;20385;-66
2023/01/21 12:57:28;;;;;;;105.90;32.22;;;;;;;;;;4988564;28;20376;-65
2023/01/21 13:00:15;;;;;;;103.40;33.90;;;;;;;;;;4979197;28;20053;-65
2023/01/21 13:02:48;;;;;;;99.10;32.78;;;;;;;;;;4991877;28;20105;-65
2023/01/21 13:05:20;;;;;;;95.07;30.95;;;;;;;;;;4990190;28;20508;-65
2023/01/21 13:07:59;;;;;;;100.85;34.15;;;;;;;;;;4991391;28;20040;-65
2023/01/21 13:10:41;;;;;;;98.72;32.67;;;;;;;;;;4990858;28;20050;-66
2023/01/21 13:13:30;;;;;;;101.38;33.25;;;;;;;;;;4989902;28;20121;-66
2023/01/21 13:16:01;;;;;;;96.90;32.47;;;;;;;;;;4992519;28;20503;-66
2023/01/21 13:18:34;;;;;;;103.78;33.35;;;;;;;;;;4993467;28;20050;-65
2023/01/21 13:21:36;;;;;;;93.53;29.65;;;;;;;;;;4992789;28;20034;-66
2023/01/21 13:24:20;;;;;;;100.45;30.42;;;;;;;;;;4993126;28;20717;-65
2023/01/21 13:27:23;;;;;;;87.80;28.77;;;;;;;;;;4991905;28;20034;-65
2023/01/21 13:30:15;;;;;;;94.88;28.10;;;;;;;;;;4977105;28;20512;-66
2023/01/21 13:33:03;;;;;;;91.78;27.10;;;;;;;;;;4991190;28;20070;-66
2023/01/21 13:35:59;;;;;;;83.53;25.30;;;;;;;;;;4987689;28;20034;-65
2023/01/21 13:38:51;;;;;;;97.97;29.30;;;;;;;;;;4986924;28;20018;-67
2023/01/21 13:41:42;;;;;;;91.07;26.75;;;;;;;;;;4987221;28;20069;-65
2023/01/21 13:44:17;;;;;;;94.13;27.30;;;;;;;;;;4991848;28;20039;-65
2023/01/21 13:47:10;;;;;;;91.00;28.73;;;;;;;;;;4997106;28;20045;-66
2023/01/21 13:49:52;;;;;;;91.50;28.83;;;;;;;;;;4997643;28;20025;-66
2023/01/21 13:52:31;;;;;;;101.00;29.73;;;;;;;;;;4990239;28;20034;-66
2023/01/21 13:55:38;;;;;;;89.10;27.08;;;;;;;;;;4990954;28;20034;-66
2023/01/21 13:58:03;;;;;;;89.43;26.33;;;;;;;;;;4966131;28;20060;-66
2023/01/21 14:00:36;;;;;;;80.32;24.35;;;;;;;;;;4989608;28;20477;-66
2023/01/21 14:03:22;;;;;;;89.82;26.75;;;;;;;;;;4991436;28;20098;-66
2023/01/21 14:06:02;;;;;;;90.45;28.00;;;;;;;;;;4991258;28;20022;-66
2023/01/21 14:08:36;;;;;;;89.47;27.77;;;;;;;;;;4991014;28;20034;-66
2023/01/21 14:11:09;;;;;;;100.43;29.88;;;;;;;;;;4989433;28;20041;-66
2023/01/21 14:13:54;;;;;;;99.40;30.88;;;;;;;;;;4992011;28;20137;-66
2023/01/21 14:16:37;;;;;;;105.47;30.20;;;;;;;;;;4991502;28;20030;-67
2023/01/21 14:19:27;;;;;;;83.10;28.50;;;;;;;;;;4990333;28;20034;-67
2023/01/21 14:22:09;;;;;;;85.18;26.05;;;;;;;;;;4989929;28;20074;-67
2023/01/21 14:24:52;;;;;;;85.72;27.60;;;;;;;;;;4991269;28;20509;-66
2023/01/21 14:27:37;;;;;;;84.25;27.60;;;;;;;;;;4993367;28;20073;-65
2023/01/21 14:30:05;;;;;;;82.28;26.45;;;;;;;;;;4995554;28;20042;-66
2023/01/21 14:32:47;;;;;;;84.10;25.73;;;;;;;;;;4995668;28;20040;-66
2023/01/21 14:35:19;;;;;;;82.85;25.50;;;;;;;;;;4994573;28;20038;-65
2023/01/21 14:38:22;;;;;;;78.65;24.85;;;;;;;;;;4988454;28;20118;-66
2023/01/21 14:40:50;;;;;;;80.25;24.60;;;;;;;;;;4994931;28;20033;-66
2023/01/21 14:43:41;;;;;;;92.05;27.00;;;;;;;;;;4990865;28;20084;-65
2023/01/21 14:46:23;;;;;;;97.22;28.15;;;;;;;;;;4989069;28;20092;-66
2023/01/21 14:49:07;;;;;;;83.90;23.70;;;;;;;;;;4992694;28;20487;-66
2023/01/21 14:51:46;;;;;;;84.78;23.48;;;;;;;;;;5004074;28;20041;-66
2023/01/21 14:54:24;;;;;;;69.45;23.27;;;;;;;;;;4991249;28;20034;-66